sensor_id;sensor_type;location;lat;lon;timestamp;pressure;altitude;pressure_sealevel;temperature;humidity
80699;BME280;70062;51.658;5.658;2023-08-24T00:01:30;101633.14;;;18.62;69.95
80699;BME280;70062;51.658;5.658;2023-08-24T00:03:56;101632.20;;;18.60;69.86
80699;BME280;70062;51.658;5.658;2023-08-24T00:06:21;101634.75;;;18.58;70.05
80699;BME280;70062;51.658;5.658;2023-08-24T00:08:46;101636.08;;;18.56;70.14
80699;BME280;70062;51.658;5.658;2023-08-24T00:11:12;101635.81;;;18.53;70.23
80699;BME280;70062;51.658;5.658;2023-08-24T00:13:41;101637.98;;;18.50;70.43
80699;BME280;70062;51.658;5.658;2023-08-24T00:16:11;101627.52;;;18.49;70.46
80699;BME280;70062;51.658;5.658;2023-08-24T00:18:37;101623.33;;;18.48;70.48
80699;BME280;70062;51.658;5.658;2023-08-24T00:21:02;101621.93;;;18.48;70.65
80699;BME280;70062;51.658;5.658;2023-08-24T00:23:27;101617.23;;;18.48;70.68
80699;BME280;70062;51.658;5.658;2023-08-24T00:25:53;101617.55;;;18.47;70.80
80699;BME280;70062;51.658;5.658;2023-08-24T00:28:18;101622.72;;;18.45;70.90
80699;BME280;70062;51.658;5.658;2023-08-24T00:30:44;101630.66;;;18.43;70.92
80699;BME280;70062;51.658;5.658;2023-08-24T00:33:09;101638.71;;;18.39;70.94
80699;BME280;70062;51.658;5.658;2023-08-24T00:35:35;101640.27;;;18.33;71.05
80699;BME280;70062;51.658;5.658;2023-08-24T00:38:00;101636.05;;;18.26;71.07
80699;BME280;70062;51.658;5.658;2023-08-24T00:40:25;101633.27;;;18.20;71.17
80699;BME280;70062;51.658;5.658;2023-08-24T00:42:51;101635.23;;;18.16;71.40
80699;BME280;70062;51.658;5.658;2023-08-24T00:45:17;101627.75;;;18.16;71.45
80699;BME280;70062;51.658;5.658;2023-08-24T00:47:45;101621.88;;;18.17;71.47
80699;BME280;70062;51.658;5.658;2023-08-24T00:50:11;101620.21;;;18.19;71.64
80699;BME280;70062;51.658;5.658;2023-08-24T00:52:38;101624.77;;;18.21;71.68
80699;BME280;70062;51.658;5.658;2023-08-24T00:55:06;101629.70;;;18.22;71.71
80699;BME280;70062;51.658;5.658;2023-08-24T00:57:32;101625.20;;;18.23;71.77
80699;BME280;70062;51.658;5.658;2023-08-24T00:59:59;101623.99;;;18.24;71.86
80699;BME280;70062;51.658;5.658;2023-08-24T01:02:27;101623.30;;;18.24;71.79
80699;BME280;70062;51.658;5.658;2023-08-24T01:04:53;101615.98;;;18.23;71.86
80699;BME280;70062;51.658;5.658;2023-08-24T01:07:18;101616.44;;;18.21;71.81
80699;BME280;70062;51.658;5.658;2023-08-24T01:09:44;101612.21;;;18.19;72.00
80699;BME280;70062;51.658;5.658;2023-08-24T01:17:43;101612.91;;;18.25;72.23
80699;BME280;70062;51.658;5.658;2023-08-24T01:20:09;101610.07;;;18.29;72.06
80699;BME280;70062;51.658;5.658;2023-08-24T01:22:52;101607.05;;;18.33;72.05
80699;BME280;70062;51.658;5.658;2023-08-24T01:30:07;101604.10;;;18.45;71.90
80699;BME280;70062;51.658;5.658;2023-08-24T01:32:34;101606.33;;;18.44;71.87
80699;BME280;70062;51.658;5.658;2023-08-24T01:35:03;101610.82;;;18.42;71.76
80699;BME280;70062;51.658;5.658;2023-08-24T01:37:32;101605.00;;;18.40;71.83
80699;BME280;70062;51.658;5.658;2023-08-24T01:40:13;101595.05;;;18.38;71.84
80699;BME280;70062;51.658;5.658;2023-08-24T01:45:08;101577.99;;;18.38;72.04
80699;BME280;70062;51.658;5.658;2023-08-24T01:47:36;101582.77;;;18.40;72.10
80699;BME280;70062;51.658;5.658;2023-08-24T01:50:03;101583.23;;;18.44;72.08
80699;BME280;70062;51.658;5.658;2023-08-24T01:52:30;101582.30;;;18.48;72.05
80699;BME280;70062;51.658;5.658;2023-08-24T01:54:56;101590.77;;;18.53;72.09
80699;BME280;70062;51.658;5.658;2023-08-24T01:57:22;101595.44;;;18.58;72.01
80699;BME280;70062;51.658;5.658;2023-08-24T01:59:47;101598.36;;;18.62;71.88
80699;BME280;70062;51.658;5.658;2023-08-24T02:02:12;101599.02;;;18.67;71.89
80699;BME280;70062;51.658;5.658;2023-08-24T02:04:38;101598.95;;;18.71;71.86
80699;BME280;70062;51.658;5.658;2023-08-24T02:07:03;101592.08;;;18.73;71.84
80699;BME280;70062;51.658;5.658;2023-08-24T02:09:29;101595.27;;;18.75;71.83
80699;BME280;70062;51.658;5.658;2023-08-24T02:11:55;101601.21;;;18.76;71.70
80699;BME280;70062;51.658;5.658;2023-08-24T02:14:20;101608.04;;;18.78;71.64
80699;BME280;70062;51.658;5.658;2023-08-24T02:16:46;101609.13;;;18.80;71.70
80699;BME280;70062;51.658;5.658;2023-08-24T02:19:12;101605.38;;;18.82;71.50
80699;BME280;70062;51.658;5.658;2023-08-24T02:21:37;101590.70;;;18.87;71.56
80699;BME280;70062;51.658;5.658;2023-08-24T02:24:04;101583.68;;;18.91;71.53
80699;BME280;70062;51.658;5.658;2023-08-24T02:26:30;101579.44;;;18.95;71.47
80699;BME280;70062;51.658;5.658;2023-08-24T02:28:57;101586.50;;;18.99;71.42
80699;BME280;70062;51.658;5.658;2023-08-24T02:31:22;101588.97;;;19.00;71.36
80699;BME280;70062;51.658;5.658;2023-08-24T02:33:48;101586.92;;;19.02;71.38
80699;BME280;70062;51.658;5.658;2023-08-24T02:36:14;101594.61;;;19.03;71.32
80699;BME280;70062;51.658;5.658;2023-08-24T02:38:40;101598.25;;;19.03;71.28
80699;BME280;70062;51.658;5.658;2023-08-24T02:41:07;101591.83;;;19.03;71.33
80699;BME280;70062;51.658;5.658;2023-08-24T02:43:34;101592.70;;;19.03;71.24
80699;BME280;70062;51.658;5.658;2023-08-24T02:46:01;101584.52;;;19.03;71.27
80699;BME280;70062;51.658;5.658;2023-08-24T02:48:28;101579.48;;;19.03;71.24
80699;BME280;70062;51.658;5.658;2023-08-24T02:50:54;101567.84;;;19.04;71.29
80699;BME280;70062;51.658;5.658;2023-08-24T02:53:19;101560.29;;;19.07;71.27
80699;BME280;70062;51.658;5.658;2023-08-24T02:55:45;101553.95;;;19.10;71.19
80699;BME280;70062;51.658;5.658;2023-08-24T02:58:10;101551.25;;;19.14;71.09
80699;BME280;70062;51.658;5.658;2023-08-24T03:00:38;101547.10;;;19.15;71.06
80699;BME280;70062;51.658;5.658;2023-08-24T03:03:03;101543.09;;;19.15;71.08
80699;BME280;70062;51.658;5.658;2023-08-24T03:05:31;101531.96;;;19.15;71.04
80699;BME280;70062;51.658;5.658;2023-08-24T03:07:58;101518.04;;;19.15;71.63
80699;BME280;70062;51.658;5.658;2023-08-24T03:10:23;101515.05;;;19.14;72.10
80699;BME280;70062;51.658;5.658;2023-08-24T03:12:48;101511.58;;;19.14;72.60
80699;BME280;70062;51.658;5.658;2023-08-24T03:15:14;101488.98;;;19.15;72.83
80699;BME280;70062;51.658;5.658;2023-08-24T03:17:39;101471.80;;;19.17;73.09
80699;BME280;70062;51.658;5.658;2023-08-24T03:20:05;101460.48;;;19.17;73.51
80699;BME280;70062;51.658;5.658;2023-08-24T03:22:31;101450.05;;;19.17;73.34
80699;BME280;70062;51.658;5.658;2023-08-24T03:24:56;101440.09;;;19.16;73.43
80699;BME280;70062;51.658;5.658;2023-08-24T03:27:21;101426.47;;;19.14;73.58
80699;BME280;70062;51.658;5.658;2023-08-24T03:29:47;101424.66;;;19.10;73.62
80699;BME280;70062;51.658;5.658;2023-08-24T03:32:15;101428.27;;;19.09;73.96
80699;BME280;70062;51.658;5.658;2023-08-24T03:34:41;101435.16;;;19.07;74.03
80699;BME280;70062;51.658;5.658;2023-08-24T03:37:06;101441.44;;;19.07;74.03
80699;BME280;70062;51.658;5.658;2023-08-24T03:39:31;101442.38;;;19.10;74.16
80699;BME280;70062;51.658;5.658;2023-08-24T03:41:57;101429.56;;;19.12;74.20
80699;BME280;70062;51.658;5.658;2023-08-24T03:44:22;101410.27;;;19.13;74.32
80699;BME280;70062;51.658;5.658;2023-08-24T03:46:48;101414.27;;;19.13;74.24
80699;BME280;70062;51.658;5.658;2023-08-24T03:49:13;101421.05;;;19.13;74.39
80699;BME280;70062;51.658;5.658;2023-08-24T03:51:39;101435.33;;;19.13;74.51
80699;BME280;70062;51.658;5.658;2023-08-24T03:54:04;101432.22;;;19.14;74.46
80699;BME280;70062;51.658;5.658;2023-08-24T03:56:31;101430.90;;;19.17;74.59
80699;BME280;70062;51.658;5.658;2023-08-24T03:58:56;101435.86;;;19.21;74.45
80699;BME280;70062;51.658;5.658;2023-08-24T04:01:21;101442.37;;;19.24;74.38
80699;BME280;70062;51.658;5.658;2023-08-24T04:03:47;101447.48;;;19.26;74.39
80699;BME280;70062;51.658;5.658;2023-08-24T04:06:13;101444.05;;;19.29;74.45
80699;BME280;70062;51.658;5.658;2023-08-24T04:08:38;101439.16;;;19.29;74.48
80699;BME280;70062;51.658;5.658;2023-08-24T04:11:04;101441.04;;;19.27;74.42
80699;BME280;70062;51.658;5.658;2023-08-24T04:13:29;101440.30;;;19.25;74.48
80699;BME280;70062;51.658;5.658;2023-08-24T04:15:55;101434.17;;;19.23;74.35
80699;BME280;70062;51.658;5.658;2023-08-24T04:18:20;101431.48;;;19.20;74.56
80699;BME280;70062;51.658;5.658;2023-08-24T04:20:46;101432.14;;;19.18;74.65
80699;BME280;70062;51.658;5.658;2023-08-24T04:23:13;101429.35;;;19.18;74.59
80699;BME280;70062;51.658;5.658;2023-08-24T04:25:40;101429.89;;;19.19;74.65
80699;BME280;70062;51.658;5.658;2023-08-24T04:28:05;101434.63;;;19.20;74.55
80699;BME280;70062;51.658;5.658;2023-08-24T04:30:30;101431.52;;;19.22;74.53
80699;BME280;70062;51.658;5.658;2023-08-24T04:32:56;101430.72;;;19.25;74.49
80699;BME280;70062;51.658;5.658;2023-08-24T04:35:25;101426.41;;;19.26;74.67
80699;BME280;70062;51.658;5.658;2023-08-24T04:37:51;101424.01;;;19.28;74.34
80699;BME280;70062;51.658;5.658;2023-08-24T04:40:16;101417.56;;;19.28;74.43
80699;BME280;70062;51.658;5.658;2023-08-24T04:42:41;101415.98;;;19.27;74.32
80699;BME280;70062;51.658;5.658;2023-08-24T04:45:07;101417.67;;;19.25;74.27
80699;BME280;70062;51.658;5.658;2023-08-24T04:47:33;101419.38;;;19.23;74.25
80699;BME280;70062;51.658;5.658;2023-08-24T04:49:58;101417.77;;;19.21;74.18
80699;BME280;70062;51.658;5.658;2023-08-24T04:52:24;101419.33;;;19.21;74.33
80699;BME280;70062;51.658;5.658;2023-08-24T04:54:49;101420.38;;;19.21;74.28
80699;BME280;70062;51.658;5.658;2023-08-24T04:57:15;101423.02;;;19.23;74.24
80699;BME280;70062;51.658;5.658;2023-08-24T04:59:40;101425.48;;;19.24;74.22
80699;BME280;70062;51.658;5.658;2023-08-24T05:02:05;101432.62;;;19.24;74.22
80699;BME280;70062;51.658;5.658;2023-08-24T05:04:31;101433.83;;;19.23;74.24
80699;BME280;70062;51.658;5.658;2023-08-24T05:06:56;101432.23;;;19.22;74.15
80699;BME280;70062;51.658;5.658;2023-08-24T05:09:22;101425.92;;;19.21;74.22
80699;BME280;70062;51.658;5.658;2023-08-24T05:11:48;101430.94;;;19.19;74.10
80699;BME280;70062;51.658;5.658;2023-08-24T05:14:13;101431.41;;;19.17;74.19
80699;BME280;70062;51.658;5.658;2023-08-24T05:16:39;101432.48;;;19.18;74.24
80699;BME280;70062;51.658;5.658;2023-08-24T05:19:04;101430.95;;;19.20;74.07
80699;BME280;70062;51.658;5.658;2023-08-24T05:21:30;101429.64;;;19.22;74.17
80699;BME280;70062;51.658;5.658;2023-08-24T05:23:55;101428.51;;;19.27;74.10
80699;BME280;70062;51.658;5.658;2023-08-24T05:26:20;101429.84;;;19.32;74.11
80699;BME280;70062;51.658;5.658;2023-08-24T05:28:49;101429.97;;;19.38;74.01
80699;BME280;70062;51.658;5.658;2023-08-24T05:31:15;101427.98;;;19.42;73.97
80699;BME280;70062;51.658;5.658;2023-08-24T05:33:40;101427.48;;;19.44;73.80
80699;BME280;70062;51.658;5.658;2023-08-24T05:36:06;101424.77;;;19.46;73.83
80699;BME280;70062;51.658;5.658;2023-08-24T05:38:31;101421.36;;;19.50;73.73
80699;BME280;70062;51.658;5.658;2023-08-24T05:40:57;101411.08;;;19.56;73.58
80699;BME280;70062;51.658;5.658;2023-08-24T05:43:22;101409.52;;;19.65;73.47
80699;BME280;70062;51.658;5.658;2023-08-24T05:45:48;101403.79;;;19.74;73.35
80699;BME280;70062;51.658;5.658;2023-08-24T05:48:13;101401.73;;;19.84;73.13
80699;BME280;70062;51.658;5.658;2023-08-24T05:50:46;101402.76;;;19.92;72.92
80699;BME280;70062;51.658;5.658;2023-08-24T05:53:12;101401.66;;;19.98;72.76
80699;BME280;70062;51.658;5.658;2023-08-24T05:55:38;101396.38;;;20.05;72.57
80699;BME280;70062;51.658;5.658;2023-08-24T05:58:03;101387.25;;;20.10;72.41
80699;BME280;70062;51.658;5.658;2023-08-24T06:00:29;101386.02;;;20.19;72.18
80699;BME280;70062;51.658;5.658;2023-08-24T06:02:55;101377.45;;;20.27;71.97
80699;BME280;70062;51.658;5.658;2023-08-24T06:05:20;101376.53;;;20.35;71.63
80699;BME280;70062;51.658;5.658;2023-08-24T06:07:45;101373.75;;;20.43;71.55
80699;BME280;70062;51.658;5.658;2023-08-24T06:10:11;101364.48;;;20.53;71.32
80699;BME280;70062;51.658;5.658;2023-08-24T06:12:37;101362.58;;;20.64;71.07
80699;BME280;70062;51.658;5.658;2023-08-24T06:15:03;101352.10;;;20.73;70.76
80699;BME280;70062;51.658;5.658;2023-08-24T06:17:30;101344.38;;;20.81;70.40
80699;BME280;70062;51.658;5.658;2023-08-24T06:19:55;101334.20;;;20.89;70.20
80699;BME280;70062;51.658;5.658;2023-08-24T06:22:21;101325.93;;;20.95;69.97
80699;BME280;70062;51.658;5.658;2023-08-24T06:24:46;101324.27;;;21.01;69.71
80699;BME280;70062;51.658;5.658;2023-08-24T06:28:29;101321.27;;;21.11;69.23
80699;BME280;70062;51.658;5.658;2023-08-24T06:30:54;101321.96;;;21.12;69.03
80699;BME280;70062;51.658;5.658;2023-08-24T06:33:20;101331.09;;;21.15;68.72
80699;BME280;70062;51.658;5.658;2023-08-24T06:35:45;101341.08;;;21.18;68.63
80699;BME280;70062;51.658;5.658;2023-08-24T06:38:11;101346.56;;;21.22;68.59
80699;BME280;70062;51.658;5.658;2023-08-24T06:40:36;101352.77;;;21.27;68.36
80699;BME280;70062;51.658;5.658;2023-08-24T06:43:02;101355.46;;;21.34;68.37
80699;BME280;70062;51.658;5.658;2023-08-24T06:45:27;101359.93;;;21.41;68.21
80699;BME280;70062;51.658;5.658;2023-08-24T06:47:53;101361.61;;;21.50;68.09
80699;BME280;70062;51.658;5.658;2023-08-24T06:50:18;101361.54;;;21.59;67.81
80699;BME280;70062;51.658;5.658;2023-08-24T06:52:47;101360.77;;;21.67;67.49
80699;BME280;70062;51.658;5.658;2023-08-24T06:55:12;101358.26;;;21.76;67.30
80699;BME280;70062;51.658;5.658;2023-08-24T06:57:38;101350.66;;;21.86;66.97
80699;BME280;70062;51.658;5.658;2023-08-24T07:00:04;101347.06;;;21.92;66.63
80699;BME280;70062;51.658;5.658;2023-08-24T07:02:38;101345.08;;;22.01;66.38
80699;BME280;70062;51.658;5.658;2023-08-24T07:05:03;101341.67;;;22.08;66.04
80699;BME280;70062;51.658;5.658;2023-08-24T07:07:34;101344.73;;;22.17;65.60
80699;BME280;70062;51.658;5.658;2023-08-24T07:09:59;101343.75;;;22.26;65.12
80699;BME280;70062;51.658;5.658;2023-08-24T07:12:25;101344.90;;;22.37;64.83
80699;BME280;70062;51.658;5.658;2023-08-24T07:14:50;101344.80;;;22.47;64.52
80699;BME280;70062;51.658;5.658;2023-08-24T07:17:16;101346.30;;;22.56;64.01
80699;BME280;70062;51.658;5.658;2023-08-24T07:19:41;101339.92;;;22.67;63.46
80699;BME280;70062;51.658;5.658;2023-08-24T07:22:06;101338.48;;;22.82;63.26
80699;BME280;70062;51.658;5.658;2023-08-24T07:24:33;101333.66;;;22.94;62.67
80699;BME280;70062;51.658;5.658;2023-08-24T07:26:58;101331.80;;;23.05;62.37
80699;BME280;70062;51.658;5.658;2023-08-24T07:29:24;101331.67;;;23.13;61.86
80699;BME280;70062;51.658;5.658;2023-08-24T07:31:49;101332.05;;;23.21;61.39
80699;BME280;70062;51.658;5.658;2023-08-24T07:34:15;101324.92;;;23.31;61.46
80699;BME280;70062;51.658;5.658;2023-08-24T07:36:41;101323.05;;;23.44;61.02
80699;BME280;70062;51.658;5.658;2023-08-24T07:39:08;101322.59;;;23.57;60.22
80699;BME280;70062;51.658;5.658;2023-08-24T07:41:33;101317.55;;;23.72;60.20
80699;BME280;70062;51.658;5.658;2023-08-24T07:43:59;101319.17;;;23.91;59.90
80699;BME280;70062;51.658;5.658;2023-08-24T07:46:24;101319.04;;;24.12;59.14
80699;BME280;70062;51.658;5.658;2023-08-24T07:48:50;101319.79;;;24.30;58.51
80699;BME280;70062;51.658;5.658;2023-08-24T07:51:15;101326.64;;;24.51;57.89
80699;BME280;70062;51.658;5.658;2023-08-24T07:53:40;101326.63;;;24.69;57.40
80699;BME280;70062;51.658;5.658;2023-08-24T07:56:06;101325.54;;;24.87;56.89
80699;BME280;70062;51.658;5.658;2023-08-24T07:58:32;101317.27;;;25.07;56.53
80699;BME280;70062;51.658;5.658;2023-08-24T08:00:59;101310.86;;;25.27;55.95
80699;BME280;70062;51.658;5.658;2023-08-24T08:03:25;101305.14;;;25.47;55.26
80699;BME280;70062;51.658;5.658;2023-08-24T08:05:51;101305.59;;;25.65;54.92
80699;BME280;70062;51.658;5.658;2023-08-24T08:08:16;101311.31;;;25.81;54.55
80699;BME280;70062;51.658;5.658;2023-08-24T08:10:42;101318.61;;;25.94;53.88
80699;BME280;70062;51.658;5.658;2023-08-24T08:13:08;101321.55;;;26.08;54.01
80699;BME280;70062;51.658;5.658;2023-08-24T08:15:36;101321.58;;;26.26;53.45
80699;BME280;70062;51.658;5.658;2023-08-24T08:18:04;101318.64;;;26.44;53.41
80699;BME280;70062;51.658;5.658;2023-08-24T08:20:30;101319.16;;;26.64;52.77
80699;BME280;70062;51.658;5.658;2023-08-24T08:22:55;101320.55;;;26.83;52.13
80699;BME280;70062;51.658;5.658;2023-08-24T08:25:21;101318.09;;;27.01;51.35
80699;BME280;70062;51.658;5.658;2023-08-24T08:27:48;101319.68;;;27.16;50.95
80699;BME280;70062;51.658;5.658;2023-08-24T08:30:14;101321.28;;;27.29;50.63
80699;BME280;70062;51.658;5.658;2023-08-24T08:32:41;101319.20;;;27.40;50.32
80699;BME280;70062;51.658;5.658;2023-08-24T08:35:07;101318.65;;;27.57;49.77
80699;BME280;70062;51.658;5.658;2023-08-24T08:44:13;101301.80;;;28.35;48.02
80699;BME280;70062;51.658;5.658;2023-08-24T08:46:46;101287.17;;;28.54;47.54
80699;BME280;70062;51.658;5.658;2023-08-24T08:49:13;101278.66;;;28.74;47.25
80699;BME280;70062;51.658;5.658;2023-08-24T08:51:41;101270.55;;;28.93;46.82
80699;BME280;70062;51.658;5.658;2023-08-24T08:54:08;101257.64;;;29.11;46.24
80699;BME280;70062;51.658;5.658;2023-08-24T09:03:04;101231.67;;;29.73;45.07
80699;BME280;70062;51.658;5.658;2023-08-24T09:05:30;101223.58;;;29.93;44.30
80699;BME280;70062;51.658;5.658;2023-08-24T09:07:57;101213.20;;;30.05;43.88
80699;BME280;70062;51.658;5.658;2023-08-24T09:10:23;101213.33;;;30.15;43.73
80699;BME280;70062;51.658;5.658;2023-08-24T09:13:07;101215.45;;;30.27;43.43
80699;BME280;70062;51.658;5.658;2023-08-24T09:15:35;101217.63;;;30.32;43.16
80699;BME280;70062;51.658;5.658;2023-08-24T09:18:04;101213.96;;;30.43;43.27
80699;BME280;70062;51.658;5.658;2023-08-24T09:20:30;101202.72;;;30.53;42.78
80699;BME280;70062;51.658;5.658;2023-08-24T09:22:56;101196.95;;;30.63;42.82
80699;BME280;70062;51.658;5.658;2023-08-24T09:25:24;101188.00;;;30.73;42.40
80699;BME280;70062;51.658;5.658;2023-08-24T09:27:57;101178.40;;;30.80;42.09
80699;BME280;70062;51.658;5.658;2023-08-24T09:30:23;101169.61;;;30.83;41.95
80699;BME280;70062;51.658;5.658;2023-08-24T09:32:48;101167.77;;;30.92;41.93
80699;BME280;70062;51.658;5.658;2023-08-24T09:47:19;101180.89;;;31.66;40.88
80699;BME280;70062;51.658;5.658;2023-08-24T10:01:45;101212.87;;;32.34;39.03
80699;BME280;70062;51.658;5.658;2023-08-24T10:04:14;101211.84;;;32.43;38.86
80699;BME280;70062;51.658;5.658;2023-08-24T10:06:40;101211.84;;;32.43;38.58
80699;BME280;70062;51.658;5.658;2023-08-24T10:09:11;101209.79;;;32.36;38.51
80699;BME280;70062;51.658;5.658;2023-08-24T10:11:42;101209.42;;;32.27;38.66
80699;BME280;70062;51.658;5.658;2023-08-24T10:14:35;101206.25;;;32.20;38.43
80699;BME280;70062;51.658;5.658;2023-08-24T10:17:05;101218.12;;;32.11;38.92
80699;BME280;70062;51.658;5.658;2023-08-24T10:19:31;101217.27;;;32.00;38.94
80699;BME280;70062;51.658;5.658;2023-08-24T10:21:59;101214.60;;;31.89;39.30
80699;BME280;70062;51.658;5.658;2023-08-24T10:24:25;101217.73;;;31.69;39.22
80699;BME280;70062;51.658;5.658;2023-08-24T10:26:52;101216.82;;;31.53;39.81
80699;BME280;70062;51.658;5.658;2023-08-24T10:29:20;101215.75;;;31.42;40.22
80699;BME280;70062;51.658;5.658;2023-08-24T10:31:46;101208.38;;;31.28;40.79
80699;BME280;70062;51.658;5.658;2023-08-24T10:34:13;101208.25;;;31.14;41.00
80699;BME280;70062;51.658;5.658;2023-08-24T10:36:40;101200.42;;;30.96;41.40
80699;BME280;70062;51.658;5.658;2023-08-24T10:39:06;101197.64;;;30.83;41.52
80699;BME280;70062;51.658;5.658;2023-08-24T10:41:48;101196.48;;;30.73;41.82
80699;BME280;70062;51.658;5.658;2023-08-24T10:47:17;101198.33;;;30.45;42.22
80699;BME280;70062;51.658;5.658;2023-08-24T10:49:45;101197.91;;;30.22;42.68
80699;BME280;70062;51.658;5.658;2023-08-24T10:52:23;101202.58;;;29.98;43.33
80699;BME280;70062;51.658;5.658;2023-08-24T10:54:50;101211.91;;;29.79;43.84
80699;BME280;70062;51.658;5.658;2023-08-24T10:57:27;101217.80;;;29.62;44.20
80699;BME280;70062;51.658;5.658;2023-08-24T11:00:11;101219.84;;;29.51;44.73
80699;BME280;70062;51.658;5.658;2023-08-24T11:02:51;101229.98;;;29.38;45.37
80699;BME280;70062;51.658;5.658;2023-08-24T11:05:27;101231.30;;;29.26;46.00
80699;BME280;70062;51.658;5.658;2023-08-24T11:08:02;101229.56;;;29.16;46.42
80699;BME280;70062;51.658;5.658;2023-08-24T11:10:31;101220.38;;;29.08;46.78
80699;BME280;70062;51.658;5.658;2023-08-24T11:15:39;101204.71;;;29.21;46.98
80699;BME280;70062;51.658;5.658;2023-08-24T11:20:47;101180.54;;;29.73;46.96
80699;BME280;70062;51.658;5.658;2023-08-24T11:23:15;101180.85;;;30.10;46.13
80699;BME280;70062;51.658;5.658;2023-08-24T11:25:40;101175.89;;;30.43;45.49
80699;BME280;70062;51.658;5.658;2023-08-24T11:28:06;101178.02;;;30.68;45.18
80699;BME280;70062;51.658;5.658;2023-08-24T11:30:32;101180.75;;;30.90;43.51
80699;BME280;70062;51.658;5.658;2023-08-24T11:33:01;101190.33;;;30.95;42.56
80699;BME280;70062;51.658;5.658;2023-08-24T11:35:27;101190.02;;;30.88;42.69
80699;BME280;70062;51.658;5.658;2023-08-24T11:37:54;101187.38;;;30.76;42.90
80699;BME280;70062;51.658;5.658;2023-08-24T11:40:19;101176.64;;;30.61;43.03
80699;BME280;70062;51.658;5.658;2023-08-24T11:42:46;101155.61;;;30.46;43.38
80699;BME280;70062;51.658;5.658;2023-08-24T11:45:12;101142.12;;;30.28;43.67
80699;BME280;70062;51.658;5.658;2023-08-24T11:47:38;101131.52;;;30.07;43.75
80699;BME280;70062;51.658;5.658;2023-08-24T11:50:04;101128.73;;;29.92;44.09
80699;BME280;70062;51.658;5.658;2023-08-24T11:52:30;101126.44;;;29.85;44.40
80699;BME280;70062;51.658;5.658;2023-08-24T11:55:00;101125.63;;;29.82;44.91
80699;BME280;70062;51.658;5.658;2023-08-24T11:57:25;101120.22;;;29.79;44.56
80699;BME280;70062;51.658;5.658;2023-08-24T11:59:53;101104.84;;;29.72;43.99
80699;BME280;70062;51.658;5.658;2023-08-24T12:02:20;101090.20;;;29.77;44.39
80699;BME280;70062;51.658;5.658;2023-08-24T12:04:48;101088.41;;;29.84;43.87
80699;BME280;70062;51.658;5.658;2023-08-24T12:07:14;101081.11;;;29.92;43.87
80699;BME280;70062;51.658;5.658;2023-08-24T12:09:41;101067.11;;;30.06;43.92
80699;BME280;70062;51.658;5.658;2023-08-24T12:12:13;101066.98;;;30.23;43.57
80699;BME280;70062;51.658;5.658;2023-08-24T12:14:40;101066.82;;;30.41;43.35
80699;BME280;70062;51.658;5.658;2023-08-24T12:17:07;101068.28;;;30.64;42.84
80699;BME280;70062;51.658;5.658;2023-08-24T12:19:33;101067.77;;;30.97;42.55
80699;BME280;70062;51.658;5.658;2023-08-24T12:21:58;101052.63;;;31.23;42.00
80699;BME280;70062;51.658;5.658;2023-08-24T12:24:23;101037.95;;;31.52;42.16
80699;BME280;70062;51.658;5.658;2023-08-24T12:26:57;101033.74;;;31.82;41.30
80699;BME280;70062;51.658;5.658;2023-08-24T12:29:25;101036.74;;;32.02;40.44
80699;BME280;70062;51.658;5.658;2023-08-24T12:31:50;101042.31;;;32.09;40.15
80699;BME280;70062;51.658;5.658;2023-08-24T12:34:16;101047.31;;;32.04;40.34
80699;BME280;70062;51.658;5.658;2023-08-24T12:36:42;101041.91;;;32.01;40.60
80699;BME280;70062;51.658;5.658;2023-08-24T12:39:10;101014.81;;;32.09;40.49
80699;BME280;70062;51.658;5.658;2023-08-24T12:41:38;101002.12;;;32.15;40.27
80699;BME280;70062;51.658;5.658;2023-08-24T12:44:04;101008.08;;;32.17;40.01
80699;BME280;70062;51.658;5.658;2023-08-24T12:46:36;101019.31;;;32.11;40.22
80699;BME280;70062;51.658;5.658;2023-08-24T12:49:02;101024.27;;;31.98;40.39
80699;BME280;70062;51.658;5.658;2023-08-24T12:51:28;101036.39;;;31.82;40.79
80699;BME280;70062;51.658;5.658;2023-08-24T12:53:53;101045.94;;;31.57;41.09
80699;BME280;70062;51.658;5.658;2023-08-24T12:56:19;101054.58;;;31.28;41.49
80699;BME280;70062;51.658;5.658;2023-08-24T12:58:44;101061.71;;;30.98;41.72
80699;BME280;70062;51.658;5.658;2023-08-24T13:01:11;101068.30;;;30.69;42.50
80699;BME280;70062;51.658;5.658;2023-08-24T13:03:37;101067.10;;;30.49;43.11
80699;BME280;70062;51.658;5.658;2023-08-24T13:06:05;101064.53;;;30.46;43.58
80699;BME280;70062;51.658;5.658;2023-08-24T13:08:30;101062.07;;;30.46;43.59
80699;BME280;70062;51.658;5.658;2023-08-24T13:10:56;101071.13;;;30.45;43.77
80699;BME280;70062;51.658;5.658;2023-08-24T13:13:21;101072.84;;;30.41;43.47
80699;BME280;70062;51.658;5.658;2023-08-24T13:15:50;101076.34;;;30.30;43.37
80699;BME280;70062;51.658;5.658;2023-08-24T13:18:16;101070.30;;;30.13;43.82
80699;BME280;70062;51.658;5.658;2023-08-24T13:20:42;101066.73;;;29.93;44.61
80699;BME280;70062;51.658;5.658;2023-08-24T13:23:07;101073.19;;;29.78;45.44
80699;BME280;70062;51.658;5.658;2023-08-24T13:25:33;101079.63;;;29.61;46.12
80699;BME280;70062;51.658;5.658;2023-08-24T13:27:58;101082.27;;;29.48;46.57
80699;BME280;70062;51.658;5.658;2023-08-24T13:30:24;101085.83;;;29.38;46.88
80699;BME280;70062;51.658;5.658;2023-08-24T13:32:49;101089.19;;;29.16;46.71
80699;BME280;70062;51.658;5.658;2023-08-24T13:35:14;101091.29;;;28.87;46.94
80699;BME280;70062;51.658;5.658;2023-08-24T13:37:40;101083.94;;;28.67;47.56
80699;BME280;70062;51.658;5.658;2023-08-24T13:40:05;101079.73;;;28.58;48.04
80699;BME280;70062;51.658;5.658;2023-08-24T13:42:33;101076.60;;;28.55;48.28
80699;BME280;70062;51.658;5.658;2023-08-24T13:44:58;101064.18;;;28.50;48.45
80699;BME280;70062;51.658;5.658;2023-08-24T13:47:23;101054.70;;;28.38;48.96